createdAt,value
2022-08-07T00:00:26.145Z,2.60
2022-08-07T00:02:56.869Z,2.70
2022-08-07T00:05:24.868Z,2.63
2022-08-07T00:07:59.848Z,2.67
2022-08-07T00:10:30.430Z,2.40
2022-08-07T00:13:09.836Z,3.05
2022-08-07T00:15:51.386Z,2.67
2022-08-07T00:18:24.624Z,2.67
2022-08-07T00:21:01.429Z,2.90
2022-08-07T00:23:31.734Z,2.58
2022-08-07T00:26:12.923Z,2.80
2022-08-07T00:28:56.534Z,2.30
2022-08-07T00:31:37.785Z,2.30
2022-08-07T00:34:08.890Z,2.53
2022-08-07T00:36:38.558Z,2.90
2022-08-07T00:39:12.640Z,2.85
2022-08-07T00:41:53.923Z,3.35
2022-08-07T00:44:29.904Z,2.70
2022-08-07T00:46:57.119Z,3.03
2022-08-07T00:50:19.337Z,2.65
2022-08-07T00:52:14.069Z,2.50
2022-08-07T00:54:45.015Z,2.55
2022-08-07T00:57:13.255Z,2.50
2022-08-07T00:59:41.956Z,2.60
2022-08-07T01:02:28.127Z,2.38
2022-08-07T01:04:58.732Z,2.30
2022-08-07T01:07:29.659Z,2.53
2022-08-07T01:10:04.658Z,2.10
2022-08-07T01:12:37.775Z,3.47
2022-08-07T01:15:11.777Z,2.10
2022-08-07T01:17:44.793Z,2.60
2022-08-07T01:20:16.533Z,2.50
2022-08-07T01:22:46.978Z,2.00
2022-08-07T01:25:53.913Z,1.70
2022-08-07T01:28:14.100Z,2.22
2022-08-07T01:30:42.443Z,2.00
2022-08-07T01:33:11.175Z,1.90
2022-08-07T01:35:54.184Z,2.33
2022-08-07T01:38:25.044Z,2.80
2022-08-07T01:40:59.409Z,2.28
2022-08-07T01:43:34.633Z,2.45
2022-08-07T01:46:08.405Z,2.50
2022-08-07T01:48:46.696Z,2.30
2022-08-07T01:52:01.088Z,1.70
2022-08-07T01:54:32.911Z,2.13
2022-08-07T01:57:24.150Z,1.73
2022-08-07T02:00:01.017Z,1.50
2022-08-07T02:03:18.702Z,1.83
2022-08-07T02:06:01.086Z,1.67
2022-08-07T02:08:37.905Z,1.58
2022-08-07T02:11:08.956Z,2.22
2022-08-07T02:13:57.697Z,1.77
2022-08-07T02:16:33.391Z,1.63
2022-08-07T02:19:05.591Z,2.57
2022-08-07T02:21:57.039Z,1.83
2022-08-07T02:24:29.562Z,1.60
2022-08-07T02:27:01.375Z,1.70
2022-08-07T02:29:32.598Z,1.80
2022-08-07T02:32:04.528Z,1.60
2022-08-07T02:34:34.580Z,1.83
2022-08-07T02:37:08.724Z,1.70
2022-08-07T02:42:31.047Z,1.80
2022-08-07T02:45:07.603Z,1.83
2022-08-07T02:47:50.730Z,1.73
2022-08-07T02:50:20.048Z,1.92
2022-08-07T02:53:10.976Z,2.00
2022-08-07T02:56:03.371Z,1.85
2022-08-07T02:58:35.657Z,1.40
2022-08-07T03:01:05.973Z,1.80
2022-08-07T03:03:50.464Z,1.80
2022-08-07T03:06:33.255Z,2.00
2022-08-07T03:09:05.065Z,1.90
2022-08-07T03:11:38.598Z,1.88
2022-08-07T03:14:07.948Z,1.90
2022-08-07T03:16:38.492Z,2.15
2022-08-07T03:19:07.871Z,1.80
2022-08-07T03:21:37.226Z,1.90
2022-08-07T03:24:20.657Z,1.80
2022-08-07T03:26:58.144Z,2.20
2022-08-07T03:29:51.368Z,1.70
2022-08-07T03:32:28.319Z,1.88
2022-08-07T03:35:17.043Z,2.25
2022-08-07T03:37:54.020Z,1.80
2022-08-07T03:40:36.101Z,1.90
2022-08-07T03:43:14.392Z,1.95
2022-08-07T03:45:48.475Z,1.88
2022-08-07T03:48:20.944Z,1.70
2022-08-07T03:50:56.214Z,2.08
2022-08-07T03:53:50.083Z,2.08
2022-08-07T03:56:32.789Z,2.08
2022-08-07T03:59:08.301Z,1.80
2022-08-07T04:01:43.164Z,1.98
2022-08-07T04:04:17.739Z,1.80
2022-08-07T04:06:50.825Z,2.10
2022-08-07T04:09:23.241Z,2.40
2022-08-07T04:12:21.399Z,2.45
2022-08-07T04:14:46.334Z,2.70
2022-08-07T04:17:21.066Z,2.40
2022-08-07T04:19:54.497Z,2.10
2022-08-07T04:22:29.207Z,2.47
2022-08-07T04:25:01.967Z,2.20
2022-08-07T04:27:35.882Z,2.30
2022-08-07T04:30:21.670Z,1.90
2022-08-07T04:33:07.772Z,2.00
2022-08-07T04:35:39.147Z,2.22
2022-08-07T04:40:52.273Z,2.08
2022-08-07T04:44:11.964Z,2.55
2022-08-07T04:46:34.319Z,2.75
2022-08-07T04:49:17.524Z,2.20
2022-08-07T04:52:08.832Z,3.00
2022-08-07T04:55:15.182Z,2.35
2022-08-07T04:58:16.448Z,2.03
2022-08-07T05:01:18.366Z,2.70
2022-08-07T05:04:06.786Z,2.65
2022-08-07T05:06:43.581Z,2.58
2022-08-07T05:09:45.360Z,2.72
2022-08-07T05:12:26.535Z,2.28
2022-08-07T05:15:23.382Z,2.92
2022-08-07T05:18:01.763Z,2.55
2022-08-07T05:20:45.100Z,3.00
2022-08-07T05:23:19.468Z,3.10
2022-08-07T05:26:13.581Z,3.00
2022-08-07T05:28:48.653Z,3.20
2022-08-07T05:31:20.664Z,3.38
2022-08-07T05:34:04.881Z,2.45
2022-08-07T05:36:39.113Z,2.95
2022-08-07T05:40:06.772Z,3.20
2022-08-07T05:42:08.805Z,2.90
2022-08-07T05:44:46.650Z,2.58
2022-08-07T05:48:01.969Z,2.58
2022-08-07T05:50:19.808Z,2.22
2022-08-07T05:52:48.221Z,2.83
2022-08-07T05:55:16.027Z,2.25
2022-08-07T05:57:47.565Z,2.97
2022-08-07T06:00:17.999Z,2.50
2022-08-07T06:03:01.819Z,2.10
2022-08-07T06:05:31.801Z,2.47
2022-08-07T06:08:29.036Z,2.25
2022-08-07T06:10:54.898Z,2.65
2022-08-07T06:14:10.673Z,2.63
2022-08-07T06:16:13.534Z,2.58
2022-08-07T06:18:43.388Z,2.70
2022-08-07T06:22:15.646Z,2.35
2022-08-07T06:24:46.035Z,2.63
2022-08-07T06:26:55.354Z,3.00
2022-08-07T06:29:29.757Z,3.15
2022-08-07T06:31:57.469Z,3.40
2022-08-07T06:34:29.812Z,3.28
2022-08-07T06:36:59.404Z,3.25
2022-08-07T06:40:16.014Z,2.47
2022-08-07T06:42:34.980Z,3.10
2022-08-07T06:45:18.526Z,2.90
2022-08-07T06:55:27.819Z,3.03
2022-08-07T06:56:14.841Z,4.03
2022-08-07T07:00:13.436Z,4.50
2022-08-07T07:01:44.161Z,3.85
2022-08-07T07:07:02.387Z,3.25
2022-08-07T07:09:45.195Z,4.07
2022-08-07T07:12:38.303Z,3.72
2022-08-07T07:15:35.718Z,3.73
2022-08-07T07:18:47.487Z,3.83
2022-08-07T07:21:22.148Z,5.47
2022-08-07T07:24:09.335Z,5.75
2022-08-07T07:26:41.228Z,6.07
2022-08-07T07:29:56.342Z,6.25
2022-08-07T07:32:14.401Z,7.40
2022-08-07T07:34:52.605Z,6.78
2022-08-07T07:37:45.480Z,6.03
2022-08-07T07:40:16.520Z,5.07
2022-08-07T07:42:50.858Z,3.58
2022-08-07T07:46:33.374Z,3.30
2022-08-07T07:48:12.890Z,3.30
2022-08-07T07:51:02.601Z,2.97
2022-08-07T07:53:51.574Z,3.78
2022-08-07T07:56:30.245Z,2.80
2022-08-07T07:59:01.678Z,2.90
2022-08-07T08:02:04.851Z,3.10
2022-08-07T08:04:25.490Z,4.28
2022-08-07T08:06:53.885Z,5.47
2022-08-07T08:09:25.325Z,3.60
2022-08-07T08:12:01.854Z,2.97
2022-08-07T08:14:36.478Z,3.28
2022-08-07T08:17:55.333Z,2.80
2022-08-07T08:20:19.385Z,2.53
2022-08-07T08:23:12.869Z,2.50
2022-08-07T08:26:06.930Z,2.65
2022-08-07T08:28:43.295Z,2.80
2022-08-07T08:31:22.640Z,2.20
2022-08-07T08:33:55.777Z,2.58
2022-08-07T08:36:29.738Z,3.22
2022-08-07T08:42:10.187Z,2.80
2022-08-07T08:44:46.467Z,2.40
2022-08-07T08:47:26.467Z,2.60
2022-08-07T08:50:08.788Z,3.55
2022-08-07T08:52:54.233Z,3.30
2022-08-07T08:55:53.189Z,3.45
2022-08-07T08:58:39.967Z,3.00
2022-08-07T09:01:29.684Z,3.47
2022-08-07T09:04:41.360Z,4.43
2022-08-07T09:07:15.907Z,3.35
2022-08-07T09:09:59.116Z,3.28
2022-08-07T09:13:15.034Z,3.33
2022-08-07T09:16:22.505Z,3.30
2022-08-07T09:19:03.440Z,3.42
2022-08-07T09:22:22.850Z,3.67
2022-08-07T09:24:59.749Z,4.18
2022-08-07T09:28:00.730Z,3.60
2022-08-07T09:30:54.266Z,3.03
2022-08-07T09:33:56.566Z,3.40
2022-08-07T09:36:37.003Z,2.95
2022-08-07T09:39:55.093Z,3.13
2022-08-07T09:42:29.241Z,3.00
2022-08-07T09:47:42.409Z,3.53
2022-08-07T09:48:11.718Z,3.80
2022-08-07T09:50:54.316Z,3.75
2022-08-07T09:53:24.622Z,3.60
2022-08-07T09:56:15.121Z,3.65
2022-08-07T09:59:22.039Z,4.47
2022-08-07T10:02:37.758Z,4.40
2022-08-07T10:05:21.297Z,3.47
2022-08-07T10:08:53.316Z,4.85
2022-08-07T10:12:00.403Z,4.40
2022-08-07T10:14:38.844Z,4.72
2022-08-07T10:17:18.203Z,4.10
2022-08-07T10:20:00.712Z,4.20
2022-08-07T10:22:46.748Z,4.20
2022-08-07T10:25:42.224Z,4.20
2022-08-07T10:28:15.176Z,3.80
2022-08-07T10:30:57.183Z,3.47
2022-08-07T10:34:32.212Z,4.07
2022-08-07T10:38:00.716Z,3.05
2022-08-07T10:40:33.392Z,3.70
2022-08-07T10:43:34.521Z,3.67
2022-08-07T10:46:09.477Z,3.40
2022-08-07T10:48:55.342Z,3.03
2022-08-07T10:51:57.570Z,2.90
2022-08-07T10:54:55.176Z,3.47
2022-08-07T10:57:56.197Z,2.55
2022-08-07T11:00:39.423Z,2.88
2022-08-07T11:03:17.018Z,3.25
2022-08-07T11:06:02.881Z,3.58
2022-08-07T11:08:31.985Z,3.60
2022-08-07T11:11:03.091Z,3.55
2022-08-07T11:14:44.286Z,3.50
2022-08-07T11:17:02.146Z,3.78
2022-08-07T11:22:37.191Z,4.50
2022-08-07T11:25:49.975Z,3.65
2022-08-07T11:28:41.928Z,4.65
2022-08-07T11:31:22.655Z,3.90
2022-08-07T11:34:28.826Z,3.58
2022-08-07T11:37:57.231Z,4.00
2022-08-07T11:40:49.727Z,3.80
2022-08-07T11:43:41.353Z,3.70
2022-08-07T11:46:32.415Z,3.25
2022-08-07T11:50:25.222Z,2.58
2022-08-07T11:52:45.920Z,2.65
2022-08-07T11:56:09.553Z,2.70
2022-08-07T11:58:43.422Z,2.40
2022-08-07T12:01:59.998Z,2.78
2022-08-07T12:04:48.748Z,3.00
2022-08-07T12:07:53.780Z,3.22
2022-08-07T12:10:41.889Z,3.53
2022-08-07T12:13:40.995Z,2.97
2022-08-07T12:16:18.753Z,3.35
2022-08-07T12:19:14.776Z,3.45
2022-08-07T12:21:55.693Z,3.03
2022-08-07T12:26:03.354Z,2.95
2022-08-07T12:28:40.120Z,2.75
2022-08-07T12:31:27.108Z,3.03
2022-08-07T12:34:16.244Z,2.55
2022-08-07T12:36:50.037Z,2.80
2022-08-07T12:39:44.087Z,2.95
2022-08-07T12:42:10.293Z,2.97
2022-08-07T12:44:47.797Z,2.88
2022-08-07T12:47:31.832Z,2.90
2022-08-07T12:50:39.172Z,2.67
2022-08-07T12:53:17.969Z,2.55
2022-08-07T12:56:03.952Z,3.03
2022-08-07T12:58:39.685Z,3.05
2022-08-07T13:01:34.777Z,2.42
2022-08-07T13:05:01.984Z,2.85
2022-08-07T13:08:14.623Z,2.67
2022-08-07T13:11:07.328Z,2.58
2022-08-07T13:14:02.063Z,2.13
2022-08-07T13:16:39.440Z,2.60
2022-08-07T13:19:21.952Z,2.13
2022-08-07T13:22:27.527Z,2.28
2022-08-07T13:25:02.456Z,2.15
2022-08-07T13:28:10.861Z,2.20
2022-08-07T13:30:41.023Z,1.98
2022-08-07T13:34:31.913Z,2.28
2022-08-07T13:36:25.880Z,2.50
2022-08-07T13:39:48.946Z,2.10
2022-08-07T13:42:14.556Z,2.22
2022-08-07T13:44:55.472Z,2.28
2022-08-07T13:47:40.992Z,2.42
2022-08-07T13:50:34.579Z,2.58
2022-08-07T13:55:54.676Z,2.53
2022-08-07T13:58:56.476Z,2.58
2022-08-07T14:01:26.524Z,2.28
2022-08-07T14:04:07.236Z,2.92
2022-08-07T14:06:39.028Z,2.83
2022-08-07T14:09:09.947Z,2.08
2022-08-07T14:12:01.071Z,2.20
2022-08-07T14:15:00.503Z,2.30
2022-08-07T14:17:51.548Z,2.10
2022-08-07T14:20:40.411Z,2.03
2022-08-07T14:23:14.939Z,2.20
2022-08-07T14:26:05.404Z,1.93
2022-08-07T14:31:26.057Z,2.40
2022-08-07T14:34:12.272Z,2.28
2022-08-07T14:36:56.053Z,2.40
2022-08-07T14:40:18.233Z,2.05
2022-08-07T14:42:20.617Z,2.15
2022-08-07T14:44:59.850Z,2.40
2022-08-07T14:47:32.610Z,2.38
2022-08-07T14:50:06.780Z,2.15
2022-08-07T14:52:39.437Z,2.30
2022-08-07T14:55:10.052Z,2.25
2022-08-07T14:57:57.953Z,2.38
2022-08-07T15:00:31.068Z,2.50
2022-08-07T15:03:17.482Z,2.40
2022-08-07T15:05:54.696Z,2.13
2022-08-07T15:08:47.562Z,2.22
2022-08-07T15:11:53.919Z,2.83
2022-08-07T15:16:54.853Z,2.00
2022-08-07T15:20:31.534Z,1.80
2022-08-07T15:22:29.080Z,1.58
2022-08-07T15:25:18.319Z,2.00
2022-08-07T15:31:04.660Z,1.60
2022-08-07T15:33:33.721Z,1.50
2022-08-07T15:36:05.762Z,2.10
2022-08-07T15:42:44.755Z,1.50
2022-08-07T15:44:17.267Z,1.55
2022-08-07T15:46:52.614Z,1.55
2022-08-07T15:50:05.215Z,1.67
2022-08-07T15:52:29.995Z,1.40
2022-08-07T15:55:09.063Z,1.40
2022-08-07T15:57:48.794Z,1.45
2022-08-07T16:00:31.920Z,1.90
2022-08-07T16:03:46.765Z,1.80
2022-08-07T16:06:11.834Z,1.67
2022-08-07T16:08:46.691Z,1.92
2022-08-07T16:11:32.409Z,1.60
2022-08-07T16:14:19.126Z,1.30
2022-08-07T16:16:56.797Z,2.00
2022-08-07T16:19:59.342Z,1.77
2022-08-07T16:22:58.217Z,1.67
2022-08-07T16:26:01.815Z,1.50
2022-08-07T16:30:07.090Z,1.80
2022-08-07T16:32:02.143Z,1.63
2022-08-07T16:34:59.467Z,1.50
2022-08-07T16:38:05.267Z,1.60
2022-08-07T16:40:56.943Z,1.60
2022-08-07T16:47:16.376Z,1.42
2022-08-07T16:50:27.246Z,1.30
2022-08-07T16:53:20.775Z,1.40
2022-08-07T16:55:58.916Z,1.45
2022-08-07T16:59:14.234Z,1.45
2022-08-07T17:02:03.697Z,1.70
2022-08-07T17:04:59.315Z,1.70
2022-08-07T17:07:55.885Z,1.63
2022-08-07T17:10:32.379Z,1.60
2022-08-07T17:13:16.756Z,2.00
2022-08-07T17:16:02.437Z,1.40
2022-08-07T17:18:36.701Z,1.58
2022-08-07T17:21:18.805Z,1.30
2022-08-07T17:24:01.998Z,1.50
2022-08-07T17:26:51.370Z,1.40
2022-08-07T17:30:15.858Z,1.90
2022-08-07T17:32:21.138Z,1.60
2022-08-07T17:35:51.645Z,1.75
2022-08-07T17:38:33.801Z,1.45
2022-08-07T17:42:02.821Z,1.60
2022-08-07T17:44:14.729Z,2.15
2022-08-07T17:46:55.577Z,1.80
2022-08-07T17:49:53.532Z,1.30
2022-08-07T17:52:46.424Z,1.80
2022-08-07T17:56:00.349Z,1.60
2022-08-07T17:58:30.169Z,1.67
2022-08-07T18:01:02.805Z,1.90
2022-08-07T18:04:07.350Z,1.70
2022-08-07T18:06:43.130Z,1.90
2022-08-07T18:09:19.195Z,1.60
2022-08-07T18:12:48.069Z,1.60
2022-08-07T18:15:42.735Z,1.90
2022-08-07T18:21:00.778Z,2.22
2022-08-07T18:21:42.238Z,1.80
2022-08-07T18:24:06.956Z,1.90
2022-08-07T18:26:40.510Z,1.90
2022-08-07T18:30:04.193Z,2.05
2022-08-07T18:35:11.680Z,2.15
2022-08-07T18:38:55.691Z,1.80
2022-08-07T18:41:09.420Z,1.42
2022-08-07T18:43:57.263Z,2.08
2022-08-07T18:46:51.127Z,1.92
2022-08-07T18:50:31.741Z,2.15
2022-08-07T18:53:12.859Z,1.90
2022-08-07T18:55:57.220Z,2.10
2022-08-07T18:58:51.388Z,2.20
2022-08-07T19:02:18.632Z,2.95
2022-08-07T19:04:59.457Z,1.55
2022-08-07T19:07:51.825Z,2.08
2022-08-07T19:10:31.411Z,2.35
2022-08-07T19:13:50.276Z,2.25
2022-08-07T19:17:06.661Z,2.13
2022-08-07T19:19:54.995Z,2.17
2022-08-07T19:22:53.198Z,2.28
2022-08-07T19:26:25.178Z,2.13
2022-08-07T19:30:57.473Z,2.08
2022-08-07T19:31:38.170Z,2.30
2022-08-07T19:34:06.655Z,2.45
2022-08-07T19:36:40.987Z,2.80
2022-08-07T19:39:11.685Z,3.25
2022-08-07T19:42:06.183Z,2.65
2022-08-07T19:44:40.977Z,2.92
2022-08-07T19:47:11.832Z,2.80
2022-08-07T19:49:57.257Z,3.17
2022-08-07T19:52:27.949Z,4.25
2022-08-07T19:54:57.318Z,3.50
2022-08-07T19:58:00.786Z,3.58
2022-08-07T20:00:27.923Z,3.40
2022-08-07T20:03:02.216Z,3.38
2022-08-07T20:06:01.370Z,3.00
2022-08-07T20:08:31.810Z,3.45
2022-08-07T20:11:03.944Z,3.05
2022-08-07T20:13:47.700Z,2.97
2022-08-07T20:16:34.911Z,2.92
2022-08-07T20:19:05.980Z,3.08
2022-08-07T20:21:42.103Z,4.25
2022-08-07T20:24:22.728Z,3.70
2022-08-07T20:26:54.652Z,3.33
2022-08-07T20:32:22.950Z,3.55
2022-08-07T20:34:56.355Z,4.18
2022-08-07T20:37:29.689Z,4.88
2022-08-07T20:40:05.305Z,3.55
2022-08-07T20:42:56.135Z,4.28
2022-08-07T20:45:33.224Z,5.00
2022-08-07T20:48:29.022Z,4.40
2022-08-07T20:51:01.236Z,3.70
2022-08-07T20:54:04.580Z,4.25
2022-08-07T20:56:30.564Z,4.53
2022-08-07T20:59:05.343Z,3.78
2022-08-07T21:01:45.576Z,5.28
2022-08-07T21:04:28.647Z,4.30
2022-08-07T21:07:04.531Z,3.75
2022-08-07T21:09:52.711Z,4.43
2022-08-07T21:12:30.988Z,4.68
2022-08-07T21:15:00.867Z,4.50
2022-08-07T21:18:02.603Z,4.70
2022-08-07T21:20:29.550Z,4.70
2022-08-07T21:23:07.693Z,4.32
2022-08-07T21:25:56.498Z,4.63
2022-08-07T21:29:15.757Z,5.00
2022-08-07T21:32:43.892Z,4.35
2022-08-07T21:35:01.390Z,5.00
2022-08-07T21:37:58.383Z,4.38
2022-08-07T21:40:35.633Z,4.75
2022-08-07T21:43:14.219Z,4.95
2022-08-07T21:46:10.024Z,4.85
2022-08-07T21:48:55.826Z,5.78
2022-08-07T21:51:32.890Z,5.80
2022-08-07T21:55:06.756Z,6.28
2022-08-07T21:58:04.542Z,6.22
2022-08-07T22:00:32.742Z,4.63
2022-08-07T22:03:17.271Z,5.47
2022-08-07T22:06:03.797Z,4.90
2022-08-07T22:08:40.908Z,4.55
2022-08-07T22:11:11.156Z,4.85
2022-08-07T22:13:52.039Z,5.40
2022-08-07T22:16:38.451Z,5.18
2022-08-07T22:19:29.540Z,4.60
2022-08-07T22:22:28.963Z,5.47
2022-08-07T22:25:05.672Z,4.47
2022-08-07T22:28:07.858Z,4.18
2022-08-07T22:30:54.720Z,5.15
2022-08-07T22:33:52.817Z,4.50
2022-08-07T22:36:35.956Z,4.32
2022-08-07T22:39:30.000Z,4.57
2022-08-07T22:42:25.674Z,4.55
2022-08-07T22:44:58.601Z,5.35
2022-08-07T22:48:04.299Z,5.07
2022-08-07T22:51:08.676Z,4.30
2022-08-07T22:54:06.951Z,4.95
2022-08-07T22:56:54.756Z,4.35
2022-08-07T22:59:33.904Z,4.65
2022-08-07T23:02:22.694Z,4.30
2022-08-07T23:06:08.455Z,4.15
2022-08-07T23:08:22.314Z,4.90
2022-08-07T23:11:49.370Z,4.50
2022-08-07T23:14:48.457Z,4.95
2022-08-07T23:17:26.005Z,4.97
2022-08-07T23:20:51.224Z,4.35
2022-08-07T23:24:06.887Z,4.30
2022-08-07T23:27:01.253Z,4.53
2022-08-07T23:29:43.597Z,5.15
2022-08-07T23:34:18.617Z,5.40
2022-08-07T23:35:37.546Z,5.03
2022-08-07T23:38:10.834Z,4.68
2022-08-07T23:40:53.484Z,4.55
2022-08-07T23:43:39.221Z,4.35
2022-08-07T23:46:42.970Z,4.72
2022-08-07T23:53:00.214Z,5.03
2022-08-07T23:55:52.413Z,5.22
2022-08-07T23:58:27.076Z,5.40
